Green Lofoten — P3MG8 — position and weather

sailwx.info

Track history (hours):
 
Tides and Currents Weather Stations Pressure Air Temp Water Temp Dewpoint Dewpoint Depression Visibility Wind Speed Wind Dir Waves Ship Positions

Green Lofoten

Last reported at 2014-Dec-19 08:30 UTC. Time now 2014-Dec-19 09:26 UTC.
Position N 62°14' W 006°48'.

Length 98 m; draft 4.4 m.

Type: Cargo ship. MMSI: 212857000.

Date/timePositionNaut miles runAvg speedWind from/ knotsBaromVisibWave heightAir tempDewpointWater temp
2014-Dec-19 08:30N 62°14' W 006°48'0 0.0
2014-Dec-19 07:33N 62°14' W 006°48'0 0.0
2014-Dec-19 06:34N 62°14' W 006°48'0 0.0
2014-Dec-19 05:31N 62°14' W 006°48'0 0.0
2014-Dec-19 04:26N 62°14' W 006°48'0 0.0
2014-Dec-19 03:17N 62°14' W 006°48'0 0.0
2014-Dec-19 02:29N 62°14' W 006°48'0 0.0
2014-Dec-19 01:32N 62°14' W 006°48'0 0.0
2014-Dec-19 00:29N 62°14' W 006°48'0 0.0
2014-Dec-18 23:29N 62°14' W 006°48'0 0.0
2014-Dec-18 22:32N 62°14' W 006°48'0 0.0
2014-Dec-18 21:32N 62°14' W 006°48'0 0.0
2014-Dec-18 20:29N 62°14' W 006°48'0 0.0
2014-Dec-18 19:32N 62°14' W 006°48'0 0.0
2014-Dec-18 18:32N 62°14' W 006°48'0 0.0
2014-Dec-18 17:32N 62°14' W 006°48'0 0.0
2014-Dec-18 16:26N 62°14' W 006°48'0 0.0
2014-Dec-18 15:26N 62°14' W 006°48'0 0.0
2014-Dec-18 14:32N 62°14' W 006°48'0 0.0
2014-Dec-18 13:23N 62°14' W 006°48'0 0.0
2014-Dec-18 12:29N 62°14' W 006°48'0 0.0
2014-Dec-18 11:32N 62°14' W 006°48'0 0.0
2014-Dec-18 10:26N 62°14' W 006°48'0 0.0
2014-Dec-18 09:26N 62°14' W 006°48'0 0.0
2014-Dec-18 08:29N 62°14' W 006°48'0 0.0
2014-Dec-18 07:32N 62°14' W 006°48'0 0.0
2014-Dec-18 06:11N 62°14' W 006°48'0 0.0
2014-Dec-18 05:23N 62°14' W 006°48'0 0.0
2014-Dec-18 04:23N 62°14' W 006°48'0 0.0
2014-Dec-18 03:08N 62°14' W 006°48'0 0.0
2014-Dec-18 02:26N 62°14' W 006°48'0 0.0
2014-Dec-18 01:26N 62°14' W 006°48'0 0.0
2014-Dec-18 00:32N 62°14' W 006°48'0 0.0
2014-Dec-17 23:29N 62°14' W 006°48'0 0.0
2014-Dec-17 22:32N 62°14' W 006°48'0 0.0
2014-Dec-17 21:26N 62°14' W 006°48'0 0.0
2014-Dec-17 20:32N 62°14' W 006°48'0 0.0
2014-Dec-17 19:23N 62°14' W 006°48'0 0.0
2014-Dec-17 18:32N 62°14' W 006°48'0 0.0
2014-Dec-17 17:32N 62°14' W 006°48'0 0.0
2014-Dec-17 16:20N 62°14' W 006°48'0 0.0
2014-Dec-17 15:32N 62°14' W 006°48'0 0.0
2014-Dec-17 14:26N 62°14' W 006°48'0 0.0
2014-Dec-17 13:08N 62°14' W 006°48'0 0.0
2014-Dec-17 12:23N 62°14' W 006°48'0 0.0
2014-Dec-17 11:32N 62°14' W 006°48'0 0.0
2014-Dec-17 10:33N 62°14' W 006°48'2 1.8
2014-Dec-17 09:33N 62°15' W 006°45'0 0.5
2014-Dec-17 08:33N 62°15' W 006°44'6 5.6
2014-Dec-17 07:32N 62°11' W 006°36'7 6.8
2014-Dec-17 06:33N 62°05' W 006°29'1010.5
2014-Dec-17 05:33N 61°56' W 006°20'1211.9
2014-Dec-17 04:33N 61°44' W 006°12'1212.3
2014-Dec-17 03:33N 61°33' W 006°04'15012.5
2014-Dec-16 15:31N 59°17' W 003°55'8 8.6
2014-Dec-16 14:33N 59°09' W 003°48'8 7.9
2014-Dec-16 13:33N 59°02' W 003°41'7 7.0
2014-Dec-16 12:33N 58°56' W 003°34'7 6.9
2014-Dec-16 11:33N 58°50' W 003°29'7 6.9
2014-Dec-16 10:33N 58°45' W 003°20'9 9.0
2014-Dec-16 09:33N 58°42' W 003°03'10 9.7
2014-Dec-16 08:33N 58°33' W 002°56'3 2.5
2014-Dec-16 07:33N 58°36' W 002°55'8 6.8
2014-Dec-16 06:21N 58°27' W 002°56'0 0.0
2014-Dec-14 23:10N 58°27' W 002°56'51 3.7
2014-Dec-14 09:33N 57°45' W 002°04'1010.2
2014-Dec-14 08:34N 57°42' W 001°46'1212.1
2014-Dec-14 07:33N 57°45' W 001°24'37710.2
2014-Dec-12 18:34N 57°49' E 010°23'1312.5
2014-Dec-12 17:34N 57°48' E 010°47'1311.7
2014-Dec-12 16:24N 57°36' E 010°34'0 0.1
2014-Dec-12 14:30N 57°36' E 010°33'0 0.0
2014-Dec-12 13:33N 57°36' E 010°33'0 0.0
2014-Dec-12 12:30N 57°36' E 010°33'0 0.0
2014-Dec-12 03:06N 57°36' E 010°34'0 0.0
2014-Dec-12 02:33N 57°36' E 010°34'0 0.0
2014-Dec-12 01:33N 57°36' E 010°34'0 0.0
2014-Dec-12 00:30N 57°36' E 010°33'0 0.0
2014-Dec-11 23:33N 57°36' E 010°33'0 0.0
2014-Dec-10 16:18N 57°36' E 010°33'7 9.9
2014-Dec-10 15:33N 57°36' E 010°47'1 0.9
2014-Dec-10 14:33N 57°36' E 010°49'6 5.5
2014-Dec-10 13:33N 57°31' E 010°49'5 5.0
2014-Dec-10 12:33N 57°26' E 010°47'5 5.0
2014-Dec-10 11:33N 57°21' E 010°44'2 1.2
2014-Dec-10 09:33N 57°24' E 010°45'4 3.7
2014-Dec-10 08:32N 57°27' E 010°45'4 4.0
2014-Dec-10 07:31N 57°31' E 010°44'2 2.4
2014-Dec-10 06:31N 57°29' E 010°46'1111.2
2014-Dec-10 05:32N 57°18' E 010°42'3 2.9
2014-Dec-10 04:29N 57°21' E 010°43'4 4.5
2014-Dec-10 03:33N 57°25' E 010°45'5 4.8
2014-Dec-10 02:33N 57°30' E 010°45'4 3.3
2014-Dec-10 01:26N 57°33' E 010°44'3 3.2
2014-Dec-10 00:32N 57°36' E 010°42'3 3.5
2014-Dec-09 23:33N 57°37' E 010°36'0 0.1
2014-Dec-09 16:06N 57°37' E 010°35'0 0.1
2014-Dec-09 15:33N 57°37' E 010°36'0 0.0
2014-Dec-09 12:18N 57°37' E 010°36'  
Track history (hours):
 
Tides and Currents Weather Stations Pressure Air Temp Water Temp Dewpoint Dewpoint Depression Visibility Wind Speed Wind Dir Waves Ship Positions

Green Lofoten

Last reported at 2014-Dec-19 08:30 UTC. Time now 2014-Dec-19 09:26 UTC.
Position N 62°14' W 006°48'.

Length 98 m; draft 4.4 m.

Type: Cargo ship. MMSI: 212857000.

Date/timePositionNaut miles runAvg speedWind from/ knotsBaromVisibWave heightAir tempDewpointWater temp
2014-Dec-19 08:30N 62°14' W 006°48'0 0.0
2014-Dec-19 07:33N 62°14' W 006°48'0 0.0
2014-Dec-19 06:34N 62°14' W 006°48'0 0.0
2014-Dec-19 05:31N 62°14' W 006°48'0 0.0
2014-Dec-19 04:26N 62°14' W 006°48'0 0.0
2014-Dec-19 03:17N 62°14' W 006°48'0 0.0
2014-Dec-19 02:29N 62°14' W 006°48'0 0.0
2014-Dec-19 01:32N 62°14' W 006°48'0 0.0
2014-Dec-19 00:29N 62°14' W 006°48'0 0.0
2014-Dec-18 23:29N 62°14' W 006°48'0 0.0
2014-Dec-18 22:32N 62°14' W 006°48'0 0.0
2014-Dec-18 21:32N 62°14' W 006°48'0 0.0
2014-Dec-18 20:29N 62°14' W 006°48'0 0.0
2014-Dec-18 19:32N 62°14' W 006°48'0 0.0
2014-Dec-18 18:32N 62°14' W 006°48'0 0.0
2014-Dec-18 17:32N 62°14' W 006°48'0 0.0
2014-Dec-18 16:26N 62°14' W 006°48'0 0.0
2014-Dec-18 15:26N 62°14' W 006°48'0 0.0
2014-Dec-18 14:32N 62°14' W 006°48'0 0.0
2014-Dec-18 13:23N 62°14' W 006°48'0 0.0
2014-Dec-18 12:29N 62°14' W 006°48'0 0.0
2014-Dec-18 11:32N 62°14' W 006°48'0 0.0
2014-Dec-18 10:26N 62°14' W 006°48'0 0.0
2014-Dec-18 09:26N 62°14' W 006°48'0 0.0
2014-Dec-18 08:29N 62°14' W 006°48'0 0.0
2014-Dec-18 07:32N 62°14' W 006°48'0 0.0
2014-Dec-18 06:11N 62°14' W 006°48'0 0.0
2014-Dec-18 05:23N 62°14' W 006°48'0 0.0
2014-Dec-18 04:23N 62°14' W 006°48'0 0.0
2014-Dec-18 03:08N 62°14' W 006°48'0 0.0
2014-Dec-18 02:26N 62°14' W 006°48'0 0.0
2014-Dec-18 01:26N 62°14' W 006°48'0 0.0
2014-Dec-18 00:32N 62°14' W 006°48'0 0.0
2014-Dec-17 23:29N 62°14' W 006°48'0 0.0
2014-Dec-17 22:32N 62°14' W 006°48'0 0.0
2014-Dec-17 21:26N 62°14' W 006°48'0 0.0
2014-Dec-17 20:32N 62°14' W 006°48'0 0.0
2014-Dec-17 19:23N 62°14' W 006°48'0 0.0
2014-Dec-17 18:32N 62°14' W 006°48'0 0.0
2014-Dec-17 17:32N 62°14' W 006°48'0 0.0
2014-Dec-17 16:20N 62°14' W 006°48'0 0.0
2014-Dec-17 15:32N 62°14' W 006°48'0 0.0
2014-Dec-17 14:26N 62°14' W 006°48'0 0.0
2014-Dec-17 13:08N 62°14' W 006°48'0 0.0
2014-Dec-17 12:23N 62°14' W 006°48'0 0.0
2014-Dec-17 11:32N 62°14' W 006°48'0 0.0
2014-Dec-17 10:33N 62°14' W 006°48'2 1.8
2014-Dec-17 09:33N 62°15' W 006°45'0 0.5
2014-Dec-17 08:33N 62°15' W 006°44'6 5.6
2014-Dec-17 07:32N 62°11' W 006°36'7 6.8
2014-Dec-17 06:33N 62°05' W 006°29'1010.5
2014-Dec-17 05:33N 61°56' W 006°20'1211.9
2014-Dec-17 04:33N 61°44' W 006°12'1212.3
2014-Dec-17 03:33N 61°33' W 006°04'15012.5
2014-Dec-16 15:31N 59°17' W 003°55'8 8.6
2014-Dec-16 14:33N 59°09' W 003°48'8 7.9
2014-Dec-16 13:33N 59°02' W 003°41'7 7.0
2014-Dec-16 12:33N 58°56' W 003°34'7 6.9
2014-Dec-16 11:33N 58°50' W 003°29'7 6.9
2014-Dec-16 10:33N 58°45' W 003°20'9 9.0
2014-Dec-16 09:33N 58°42' W 003°03'10 9.7
2014-Dec-16 08:33N 58°33' W 002°56'3 2.5
2014-Dec-16 07:33N 58°36' W 002°55'8 6.8
2014-Dec-16 06:21N 58°27' W 002°56'0 0.0
2014-Dec-14 23:10N 58°27' W 002°56'51 3.7
2014-Dec-14 09:33N 57°45' W 002°04'1010.2
2014-Dec-14 08:34N 57°42' W 001°46'1212.1
2014-Dec-14 07:33N 57°45' W 001°24'37710.2
2014-Dec-12 18:34N 57°49' E 010°23'1312.5
2014-Dec-12 17:34N 57°48' E 010°47'1311.7
2014-Dec-12 16:24N 57°36' E 010°34'0 0.1
2014-Dec-12 14:30N 57°36' E 010°33'0 0.0
2014-Dec-12 13:33N 57°36' E 010°33'0 0.0
2014-Dec-12 12:30N 57°36' E 010°33'0 0.0
2014-Dec-12 03:06N 57°36' E 010°34'0 0.0
2014-Dec-12 02:33N 57°36' E 010°34'0 0.0
2014-Dec-12 01:33N 57°36' E 010°34'0 0.0
2014-Dec-12 00:30N 57°36' E 010°33'0 0.0
2014-Dec-11 23:33N 57°36' E 010°33'0 0.0
2014-Dec-10 16:18N 57°36' E 010°33'7 9.9
2014-Dec-10 15:33N 57°36' E 010°47'1 0.9
2014-Dec-10 14:33N 57°36' E 010°49'6 5.5
2014-Dec-10 13:33N 57°31' E 010°49'5 5.0
2014-Dec-10 12:33N 57°26' E 010°47'5 5.0
2014-Dec-10 11:33N 57°21' E 010°44'2 1.2
2014-Dec-10 09:33N 57°24' E 010°45'4 3.7
2014-Dec-10 08:32N 57°27' E 010°45'4 4.0
2014-Dec-10 07:31N 57°31' E 010°44'2 2.4
2014-Dec-10 06:31N 57°29' E 010°46'1111.2
2014-Dec-10 05:32N 57°18' E 010°42'3 2.9
2014-Dec-10 04:29N 57°21' E 010°43'4 4.5
2014-Dec-10 03:33N 57°25' E 010°45'5 4.8
2014-Dec-10 02:33N 57°30' E 010°45'4 3.3
2014-Dec-10 01:26N 57°33' E 010°44'3 3.2
2014-Dec-10 00:32N 57°36' E 010°42'3 3.5
2014-Dec-09 23:33N 57°37' E 010°36'0 0.1
2014-Dec-09 16:06N 57°37' E 010°35'0 0.1
2014-Dec-09 15:33N 57°37' E 010°36'0 0.0
2014-Dec-09 12:18N 57°37' E 010°36'  

Dump ship's entire track history